Time;durP1;ratioP1;P1;durP2;ratioP2;P2;SDS_P1;SDS_P2;PMS_P1;PMS_P2;Temp;Humidity;BMP_temperature;BMP_pressure;BME280_temperature;BME280_humidity;BME280_pressure;Samples;Min_cycle;Max_cycle;Signal;HPM_P1;HPM_P2
2021/03/12 00:01:10;;;;;;;25.43;22.70;;;;;;;6.17;70.80;98803.55;127987;1101;22693;-71
2021/03/12 00:03:38;;;;;;;27.00;23.40;;;;;;;6.15;71.46;98800.28;128164;1100;24597;-71
2021/03/12 00:06:10;;;;;;;25.27;22.30;;;;;;;6.12;71.46;98801.45;128202;1100;22522;-71
2021/03/12 00:08:46;;;;;;;24.77;22.07;;;;;;;6.10;71.23;98787.72;128015;1100;22634;-72
2021/03/12 00:11:15;;;;;;;26.35;23.57;;;;;;;6.05;71.10;98797.91;128309;1101;22514;-72
2021/03/12 00:13:44;;;;;;;29.37;23.40;;;;;;;6.01;70.71;98797.45;127985;1101;23735;-72
2021/03/12 00:16:12;;;;;;;27.22;23.02;;;;;;;5.99;71.37;98801.22;128156;1099;25298;-72
2021/03/12 00:18:45;;;;;;;30.12;24.72;;;;;;;5.93;70.79;98792.28;127982;1100;22552;-72
2021/03/12 00:21:15;;;;;;;29.40;25.37;;;;;;;5.86;71.10;98780.81;127920;1101;22570;-72
2021/03/12 00:23:44;;;;;;;29.37;25.20;;;;;;;5.83;71.24;98786.41;127971;1101;22777;-72
2021/03/12 00:26:13;;;;;;;27.00;22.67;;;;;;;5.78;70.71;98779.08;128298;1100;22653;-72
2021/03/12 00:28:41;;;;;;;28.33;24.67;;;;;;;5.73;71.63;98777.97;128132;1100;22570;-73
2021/03/12 00:31:09;;;;;;;28.77;23.60;;;;;;;5.65;71.32;98784.89;127942;1101;22525;-73
2021/03/12 00:33:39;;;;;;;26.10;23.10;;;;;;;5.63;71.11;98791.30;127959;1101;22499;-73
2021/03/12 00:36:07;;;;;;;27.77;24.30;;;;;;;5.61;71.52;98790.67;128268;1099;23443;-72
2021/03/12 00:38:36;;;;;;;27.40;22.90;;;;;;;5.58;71.99;98783.16;128114;1100;25075;-72
2021/03/12 00:41:07;;;;;;;27.20;22.55;;;;;;;5.56;71.72;98787.74;128185;1100;22502;-73
2021/03/12 00:43:42;;;;;;;26.43;23.07;;;;;;;5.52;71.56;98795.14;127995;1101;22550;-71
2021/03/12 00:46:18;;;;;;;28.32;24.80;;;;;;;5.52;72.27;98800.38;127955;1101;23293;-73
2021/03/12 00:48:47;;;;;;;29.57;23.52;;;;;;;5.52;71.62;98805.61;127959;1101;22492;-72
2021/03/12 00:51:15;;;;;;;24.07;21.40;;;;;;;5.51;72.00;98806.61;127945;1101;22500;-72
2021/03/12 00:54:05;;;;;;;28.52;24.75;;;;;;;5.50;71.82;98812.84;128145;1101;22600;-72
2021/03/12 00:56:34;;;;;;;26.03;23.23;;;;;;;5.52;71.88;98807.42;128037;1101;22617;-72
2021/03/12 00:59:05;;;;;;;25.75;22.90;;;;;;;5.52;72.04;98804.80;128197;1101;23216;-72
2021/03/12 01:01:37;;;;;;;27.02;24.43;;;;;;;5.50;72.40;98804.14;128133;1101;23453;-72
2021/03/12 01:04:06;;;;;;;26.10;23.05;;;;;;;5.49;72.08;98803.34;128024;1101;24672;-72
2021/03/12 01:06:35;;;;;;;27.35;24.63;;;;;;;5.50;72.49;98809.38;128252;1099;23025;-72
2021/03/12 01:09:05;;;;;;;24.87;22.32;;;;;;;5.48;72.05;98801.72;128137;1100;22523;-72
2021/03/12 01:11:35;;;;;;;25.27;22.55;;;;;;;5.48;72.83;98798.28;128143;1100;22495;-72
2021/03/12 01:14:05;;;;;;;26.00;23.27;;;;;;;5.46;72.72;98808.91;128190;1099;22618;-72
2021/03/12 01:16:37;;;;;;;;;;;;;;;5.40;72.53;98818.30;128221;1101;25113;-72
2021/03/12 01:19:06;;;;;;;25.72;22.90;;;;;;;5.37;72.44;98829.11;128217;1100;21306;-72
2021/03/12 01:21:36;;;;;;;27.00;22.32;;;;;;;5.43;72.86;98836.29;128198;1100;24610;-71
2021/03/12 01:24:07;;;;;;;27.52;22.50;;;;;;;5.48;73.01;98840.19;128237;1100;22485;-71
2021/03/12 01:26:40;;;;;;;28.80;24.00;;;;;;;5.51;72.74;98839.84;128306;1100;22514;-73
2021/03/12 01:29:15;;;;;;;29.48;25.48;;;;;;;5.54;72.61;98839.51;128140;1100;24577;-71
2021/03/12 01:31:52;;;;;;;32.40;25.00;;;;;;;5.56;72.90;98842.75;128008;1101;22499;-71
2021/03/12 01:34:23;;;;;;;29.00;23.73;;;;;;;5.55;72.06;98838.51;128180;1100;22933;-71
2021/03/12 01:36:52;;;;;;;28.17;23.73;;;;;;;5.54;72.01;98835.08;128124;1101;22549;-71
2021/03/12 01:39:21;;;;;;;26.35;22.60;;;;;;;5.47;72.25;98834.14;128155;1100;22489;-71
2021/03/12 01:41:51;;;;;;;25.32;21.80;;;;;;;5.40;72.62;98835.81;128185;1100;22499;-71
2021/03/12 01:44:23;;;;;;;;;;;;;;;5.31;72.68;98831.60;128318;1101;22496;-71
2021/03/12 01:46:53;;;;;;;25.23;21.57;;;;;;;5.24;72.44;98835.89;128093;1100;21314;-71
2021/03/12 01:49:22;;;;;;;25.05;21.02;;;;;;;5.27;72.66;98832.94;127973;1101;23358;-72
2021/03/12 01:51:51;;;;;;;25.92;22.80;;;;;;;5.31;73.27;98828.98;128200;1100;22583;-71
2021/03/12 01:54:19;;;;;;;31.27;25.25;;;;;;;5.35;72.65;98825.84;127942;1100;22498;-71
2021/03/12 01:56:53;;;;;;;27.10;22.87;;;;;;;5.37;72.54;98834.35;128178;1100;22492;-71
2021/03/12 01:59:35;;;;;;;26.30;23.52;;;;;;;5.40;72.60;98838.44;127977;1100;22522;-71
2021/03/12 02:02:11;;;;;;;27.10;22.30;;;;;;;5.45;72.64;98827.44;128168;1099;22496;-71
2021/03/12 02:04:49;;;;;;;26.20;23.38;;;;;;;5.48;72.47;98832.33;127991;1101;22490;-71
2021/03/12 02:07:19;;;;;;;24.00;21.35;;;;;;;5.49;73.01;98829.52;128163;1100;22515;-71
2021/03/12 02:09:58;;;;;;;23.38;20.97;;;;;;;5.50;72.67;98831.18;128212;1100;22488;-71
2021/03/12 02:12:39;;;;;;;24.98;21.25;;;;;;;5.52;72.83;98829.19;128211;1100;22467;-71
2021/03/12 02:15:29;;;;;;;24.87;21.10;;;;;;;5.57;72.53;98826.06;127980;1100;22546;-71
2021/03/12 02:18:10;;;;;;;23.43;20.50;;;;;;;5.58;72.99;98836.36;128034;1100;23017;-71
2021/03/12 02:20:56;;;;;;;23.25;19.25;;;;;;;5.61;72.97;98840.44;128230;1101;22632;-71
2021/03/12 02:23:59;;;;;;;22.73;19.65;;;;;;;5.64;72.88;98835.67;128168;1099;22550;-71
2021/03/12 02:26:33;;;;;;;22.10;16.93;;;;;;;5.68;72.44;98838.76;128133;1101;22498;-76
2021/03/12 02:29:18;;;;;;;18.55;16.27;;;;;;;5.75;73.00;98831.83;128057;1099;22475;-76
2021/03/12 02:31:48;;;;;;;19.27;15.70;;;;;;;5.83;72.69;98841.44;127972;1101;22577;-72
2021/03/12 02:34:21;;;;;;;19.15;14.98;;;;;;;5.91;72.71;98838.77;127946;1101;22499;-72
2021/03/12 02:36:56;;;;;;;20.48;14.63;;;;;;;5.97;72.93;98853.84;128021;1101;22504;-70
2021/03/12 02:39:28;;;;;;;18.67;14.23;;;;;;;6.03;72.77;98850.52;128278;1101;24278;-70
2021/03/12 02:42:01;;;;;;;19.23;14.43;;;;;;;6.10;72.10;98856.69;127997;1101;22518;-70
2021/03/12 02:44:34;;;;;;;18.48;12.98;;;;;;;6.15;72.32;98855.34;127941;1101;24408;-71
2021/03/12 02:47:19;;;;;;;15.78;12.93;;;;;;;6.18;71.76;98853.19;128152;1101;22495;-71
2021/03/12 02:49:50;;;;;;;21.27;14.73;;;;;;;6.20;71.94;98850.37;128225;1101;22942;-71
2021/03/12 02:52:19;;;;;;;19.37;13.55;;;;;;;6.21;71.98;98846.78;128170;1101;22498;-71
2021/03/12 02:54:48;;;;;;;16.42;13.68;;;;;;;6.21;71.47;98850.21;128184;1099;22505;-71
2021/03/12 02:57:22;;;;;;;17.25;13.53;;;;;;;6.22;71.61;98856.27;128113;1100;22492;-71
2021/03/12 02:59:56;;;;;;;19.67;13.13;;;;;;;6.21;71.74;98850.21;127943;1101;22511;-70
2021/03/12 03:02:44;;;;;;;15.90;11.50;;;;;;;6.24;71.53;98851.67;127979;1101;22479;-70
2021/03/12 03:05:21;;;;;;;12.40;9.85;;;;;;;6.28;71.15;98868.67;127965;1099;22497;-70
2021/03/12 03:07:56;;;;;;;11.50;9.08;;;;;;;6.28;71.67;98872.11;128240;1101;24703;-71
2021/03/12 03:10:26;;;;;;;17.05;10.95;;;;;;;6.31;71.04;98884.06;128281;1101;24440;-71
2021/03/12 03:12:55;;;;;;;13.85;9.80;;;;;;;6.32;71.02;98888.31;128031;1101;22639;-70
2021/03/12 03:15:25;;;;;;;12.25;8.43;;;;;;;6.33;71.38;98897.80;128014;1101;22597;-71
2021/03/12 03:17:55;;;;;;;12.73;8.28;;;;;;;6.34;71.54;98915.19;128176;1101;24617;-71
2021/03/12 03:20:29;;;;;;;11.80;7.17;;;;;;;6.34;71.85;98920.44;127947;1101;22580;-71
2021/03/12 03:22:58;;;;;;;8.50;6.30;;;;;;;6.33;71.14;98919.63;128190;1100;22481;-72
2021/03/12 03:25:26;;;;;;;8.45;5.35;;;;;;;6.30;71.99;98925.22;128145;1101;22511;-71
2021/03/12 03:27:55;;;;;;;8.28;5.03;;;;;;;6.28;71.30;98914.07;128148;1099;22686;-71
2021/03/12 03:30:24;;;;;;;6.55;4.65;;;;;;;6.26;72.18;98920.47;128166;1100;22487;-72
2021/03/12 03:33:04;;;;;;;6.47;4.00;;;;;;;6.22;71.94;98927.06;128173;1099;22520;-71
2021/03/12 03:35:33;;;;;;;6.45;3.60;;;;;;;6.14;71.64;98914.84;128227;1099;22496;-72
2021/03/12 03:38:01;;;;;;;6.30;4.03;;;;;;;6.13;71.74;98907.94;128149;1099;24347;-72
2021/03/12 03:40:30;;;;;;;8.18;4.47;;;;;;;6.09;72.57;98899.61;128223;1100;22527;-71
2021/03/12 03:43:02;;;;;;;6.55;3.98;;;;;;;6.07;72.72;98893.75;128219;1100;24655;-72
2021/03/12 03:45:34;;;;;;;9.08;3.90;;;;;;;6.05;72.06;98893.09;128025;1100;22505;-71
2021/03/12 03:48:16;;;;;;;7.62;3.50;;;;;;;6.01;72.50;98888.38;128027;1101;22536;-71
2021/03/12 03:50:46;;;;;;;9.15;3.47;;;;;;;6.00;72.76;98903.30;128259;1100;22500;-71
2021/03/12 03:53:15;;;;;;;4.63;2.67;;;;;;;5.98;72.41;98902.64;127972;1101;22626;-73
2021/03/12 03:55:45;;;;;;;7.92;3.37;;;;;;;5.95;72.92;98902.17;128169;1101;24350;-72
2021/03/12 03:58:15;;;;;;;5.75;3.37;;;;;;;5.92;72.61;98898.06;128171;1101;22501;-72
2021/03/12 04:00:45;;;;;;;6.50;3.47;;;;;;;5.92;73.46;98894.63;128171;1101;22543;-70
2021/03/12 04:03:14;;;;;;;7.45;2.95;;;;;;;5.93;72.82;98907.61;128273;1101;24307;-70
2021/03/12 04:05:55;;;;;;;7.57;3.20;;;;;;;5.92;73.02;98910.35;127948;1100;22649;-70
2021/03/12 04:08:25;;;;;;;8.43;3.47;;;;;;;5.88;72.77;98913.31;128020;1100;22535;-70
2021/03/12 04:10:56;;;;;;;5.45;3.17;;;;;;;5.85;72.89;98915.47;128213;1101;22503;-71
2021/03/12 04:13:27;;;;;;;5.00;2.87;;;;;;;5.81;73.11;98914.19;128246;1101;22538;-70
2021/03/12 04:15:57;;;;;;;6.20;2.70;;;;;;;5.78;73.07;98914.53;128262;1101;22506;-72
2021/03/12 04:18:28;;;;;;;5.83;3.02;;;;;;;5.73;73.50;98912.44;128189;1101;22513;-72
2021/03/12 04:20:57;;;;;;;6.72;3.00;;;;;;;5.72;73.77;98910.78;127966;1100;22499;-72
2021/03/12 04:23:27;;;;;;;8.33;3.52;;;;;;;5.72;74.28;98915.20;128254;1101;22536;-71
2021/03/12 04:25:56;;;;;;;7.35;3.30;;;;;;;5.73;74.24;98915.05;128161;1101;22506;-72
2021/03/12 04:28:25;;;;;;;6.17;3.08;;;;;;;5.73;74.03;98908.97;128007;1101;22608;-71
2021/03/12 04:30:55;;;;;;;4.08;2.45;;;;;;;5.71;73.84;98924.06;128176;1099;23488;-71
2021/03/12 04:33:23;;;;;;;5.05;2.70;;;;;;;5.68;73.71;98914.73;127960;1101;22504;-71
2021/03/12 04:35:56;;;;;;;6.80;3.15;;;;;;;5.68;74.20;98925.22;128253;1100;22523;-71
2021/03/12 04:38:26;;;;;;;7.17;2.77;;;;;;;5.66;74.56;98919.32;127945;1101;22561;-71
2021/03/12 04:40:54;;;;;;;4.15;2.87;;;;;;;5.66;74.24;98921.94;127979;1101;22522;-72
2021/03/12 04:43:24;;;;;;;5.03;2.67;;;;;;;5.63;73.97;98912.64;127943;1101;24613;-71
2021/03/12 04:45:53;;;;;;;5.67;3.20;;;;;;;5.63;74.25;98928.36;127962;1101;22477;-72
2021/03/12 04:48:23;;;;;;;9.38;4.10;;;;;;;5.65;74.84;98930.80;128119;1101;22525;-72
2021/03/12 04:50:53;;;;;;;10.48;5.25;;;;;;;5.63;75.03;98928.36;127919;1100;22481;-72
2021/03/12 04:53:22;;;;;;;9.78;5.50;;;;;;;5.63;75.04;98928.36;127980;1101;22623;-72
2021/03/12 04:55:51;;;;;;;13.10;7.37;;;;;;;5.63;74.33;98936.22;127933;1101;22525;-72
2021/03/12 04:58:24;;;;;;;16.12;10.38;;;;;;;5.66;74.85;98940.28;127955;1101;22526;-72
2021/03/12 05:00:53;;;;;;;8.98;6.03;;;;;;;5.65;74.34;98942.09;128050;1101;22759;-72
2021/03/12 05:03:22;;;;;;;9.23;5.67;;;;;;;5.63;74.98;98948.48;127946;1101;22521;-73
2021/03/12 05:05:51;;;;;;;11.55;5.87;;;;;;;5.63;74.80;98936.22;127942;1101;22515;-73
2021/03/12 05:08:21;;;;;;;7.10;4.25;;;;;;;5.63;74.29;98948.48;128190;1101;22497;-72
2021/03/12 05:11:04;;;;;;;12.23;5.83;;;;;;;5.62;74.82;98952.91;127986;1101;22579;-71
2021/03/12 05:13:44;;;;;;;13.03;6.20;;;;;;;5.60;74.44;98949.66;128147;1100;22520;-71
2021/03/12 05:16:12;;;;;;;8.85;6.30;;;;;;;5.60;75.28;98960.14;128185;1100;24575;-71
2021/03/12 05:18:41;;;;;;;10.32;6.20;;;;;;;5.60;74.73;98951.47;128176;1101;22616;-72
2021/03/12 05:21:12;;;;;;;9.43;5.85;;;;;;;5.56;74.43;98948.34;127988;1101;22495;-72
2021/03/12 05:23:41;;;;;;;10.58;5.53;;;;;;;5.56;75.19;98945.72;127932;1100;22606;-73
2021/03/12 05:26:10;;;;;;;9.33;5.80;;;;;;;5.54;75.22;98949.52;127987;1101;22523;-71
2021/03/12 05:28:39;;;;;;;11.93;5.72;;;;;;;5.50;75.24;98954.28;127987;1101;23309;-71
2021/03/12 05:31:07;;;;;;;11.78;6.08;;;;;;;5.47;74.63;98949.37;128041;1099;22470;-71
2021/03/12 05:33:36;;;;;;;9.55;5.75;;;;;;;5.46;75.30;98960.82;127919;1101;22615;-71
2021/03/12 05:36:08;;;;;;;11.55;7.05;;;;;;;5.45;75.25;98967.05;128045;1101;22632;-72
2021/03/12 05:38:36;;;;;;;14.05;7.17;;;;;;;5.46;74.82;98962.63;127942;1100;22508;-72
2021/03/12 05:41:06;;;;;;;14.15;8.23;;;;;;;5.46;75.38;98965.25;128196;1100;22622;-72
2021/03/12 05:43:35;;;;;;;12.53;6.87;;;;;;;5.48;74.87;98964.10;128208;1100;22610;-73
2021/03/12 05:46:03;;;;;;;10.13;6.15;;;;;;;5.52;75.41;98970.63;127940;1101;24581;-72
2021/03/12 05:48:34;;;;;;;10.63;6.80;;;;;;;5.55;75.04;98972.10;128186;1101;22586;-72
2021/03/12 05:51:04;;;;;;;11.73;6.92;;;;;;;5.57;75.53;98978.81;128149;1101;22568;-71
2021/03/12 05:53:32;;;;;;;12.75;7.47;;;;;;;5.61;74.91;98981.91;127937;1101;22496;-72
2021/03/12 05:56:01;;;;;;;10.70;7.22;;;;;;;5.62;74.87;98983.53;128166;1101;22488;-71
2021/03/12 05:58:38;;;;;;;10.65;7.08;;;;;;;5.60;75.04;98981.09;128158;1099;22540;-71
2021/03/12 06:01:08;;;;;;;10.72;5.92;;;;;;;5.60;74.53;98986.33;128162;1100;22496;-72
2021/03/12 06:03:36;;;;;;;9.30;5.15;;;;;;;5.63;74.61;98995.63;128216;1100;22486;-72
2021/03/12 06:06:05;;;;;;;9.03;6.62;;;;;;;5.63;74.58;98991.23;127930;1101;22616;-72
2021/03/12 06:08:36;;;;;;;8.65;5.45;;;;;;;5.61;74.66;98998.44;128162;1101;22776;-72
2021/03/12 06:11:04;;;;;;;8.25;5.62;;;;;;;5.62;74.83;99001.87;128261;1100;22522;-72
2021/03/12 06:13:55;;;;;;;10.95;6.28;;;;;;;5.64;74.46;99010.39;127940;1099;24436;-72
2021/03/12 06:16:49;;;;;;;11.65;7.47;;;;;;;5.60;74.80;99015.16;128147;1100;22499;-72
2021/03/12 06:19:32;;;;;;;11.35;7.62;;;;;;;5.60;75.18;99020.39;127941;1101;24148;-72
2021/03/12 06:22:27;;;;;;;18.90;11.73;;;;;;;5.61;74.58;99024.64;128180;1100;24347;-72
2021/03/12 06:25:21;;;;;;;17.00;12.75;;;;;;;5.68;75.45;99021.34;128028;1101;22529;-72
2021/03/12 06:28:18;;;;;;;14.58;9.03;;;;;;;5.74;74.90;99018.87;128000;1101;22508;-72
2021/03/12 06:31:30;;;;;;;12.80;7.53;;;;;;;5.81;74.79;99019.01;128128;1100;22570;-72
2021/03/12 06:34:19;;;;;;;11.78;7.47;;;;;;;5.95;75.54;99026.19;128001;1101;24336;-73
2021/03/12 06:37:25;;;;;;;12.53;8.43;;;;;;;6.09;75.10;99038.56;128150;1099;24423;-73
2021/03/12 06:40:23;;;;;;;14.55;8.30;;;;;;;6.22;75.38;99050.31;128167;1099;24658;-73
2021/03/12 06:43:01;;;;;;;14.03;8.28;;;;;;;6.35;74.93;99047.95;128188;1099;22494;-73
2021/03/12 06:45:51;;;;;;;15.83;9.05;;;;;;;6.46;74.15;99058.05;128300;1099;24062;-72
2021/03/12 06:48:22;;;;;;;11.33;8.45;;;;;;;6.65;74.34;99066.47;128172;1099;22512;-72
2021/03/12 06:51:07;;;;;;;13.88;9.08;;;;;;;6.86;74.50;99071.89;128167;1100;23335;-72
2021/03/12 06:53:41;;;;;;;;;;;;;;;7.06;74.61;99078.34;128026;1101;22844;-72
2021/03/12 06:56:14;;;;;;;12.20;6.80;;;;;;;7.19;73.57;99088.22;128112;1101;23839;-73
2021/03/12 06:59:04;;;;;;;8.83;5.67;;;;;;;7.30;73.16;99092.25;128003;1101;22695;-72
2021/03/12 07:02:03;;;;;;;9.67;6.10;;;;;;;7.37;72.50;99093.17;128116;1099;22510;-72
2021/03/12 07:04:40;;;;;;;12.58;7.80;;;;;;;7.41;72.02;99107.58;128228;1099;22537;-72
2021/03/12 07:07:54;;;;;;;12.53;8.10;;;;;;;7.43;71.25;99108.23;128214;1101;22627;-73
2021/03/12 07:10:38;;;;;;;11.38;6.28;;;;;;;7.34;70.55;99111.11;127883;1103;23380;-72
2021/03/12 07:13:36;;;;;;;8.33;6.22;;;;;;;7.30;70.57;99123.78;127832;1104;22516;-73
2021/03/12 07:16:11;;;;;;;11.63;7.60;;;;;;;7.28;70.40;99123.13;127439;1104;22652;-72
2021/03/12 07:18:46;;;;;;;14.60;9.73;;;;;;;7.26;70.21;99138.23;127946;1102;22943;-72
2021/03/12 07:21:25;;;;;;;17.05;10.23;;;;;;;7.23;70.53;99141.21;127939;1104;22562;-71
2021/03/12 07:24:03;;;;;;;13.88;8.30;;;;;;;7.25;70.27;99131.36;127921;1104;22579;-72
2021/03/12 07:26:57;;;;;;;17.70;8.25;;;;;;;7.22;69.80;99142.22;127516;1105;22560;-72
2021/03/12 07:29:29;;;;;;;17.62;7.78;;;;;;;7.18;69.71;99148.81;127498;1104;22561;-72
2021/03/12 07:32:11;;;;;;;17.55;8.75;;;;;;;7.15;69.91;99151.79;127482;1104;22569;-72
2021/03/12 07:34:42;;;;;;;19.67;10.55;;;;;;;7.14;69.87;99158.05;127421;1106;22493;-72
2021/03/12 07:37:21;;;;;;;12.95;8.25;;;;;;;7.13;69.88;99159.86;127434;1105;22519;-72
2021/03/12 07:39:51;;;;;;;13.03;8.13;;;;;;;7.08;69.70;99173.49;127981;1103;22635;-72
2021/03/12 07:42:25;;;;;;;11.70;6.60;;;;;;;7.04;69.51;99176.66;127490;1105;23375;-72
2021/03/12 07:45:20;;;;;;;10.53;7.80;;;;;;;6.93;69.59;99185.75;127444;1104;22504;-72
2021/03/12 07:48:08;;;;;;;13.93;7.37;;;;;;;6.94;69.98;99189.19;127941;1101;22536;-71
2021/03/12 07:51:14;;;;;;;19.60;7.03;;;;;;;6.93;69.87;99191.00;127998;1101;22653;-72
2021/03/12 07:53:53;;;;;;;14.13;7.33;;;;;;;6.99;70.32;99192.09;128022;1101;24676;-72
2021/03/12 07:56:45;;;;;;;10.35;6.12;;;;;;;7.11;70.25;99200.41;127907;1101;22496;-72
2021/03/12 08:00:01;;;;;;;16.10;7.47;;;;;;;7.18;69.53;99209.22;128109;1101;24327;-71
2021/03/12 08:02:56;;;;;;;13.88;7.80;;;;;;;7.21;69.48;99214.95;127498;1105;22520;-72
2021/03/12 08:05:45;;;;;;;19.15;10.05;;;;;;;7.19;69.70;99216.11;127519;1104;22791;-74
2021/03/12 08:08:40;;;;;;;21.85;12.70;;;;;;;7.21;69.26;99216.76;127910;1103;22517;-74
2021/03/12 08:11:53;;;;;;;15.32;10.25;;;;;;;7.17;69.06;99225.98;127573;1105;23297;-74
2021/03/12 08:15:20;;;;;;;13.85;7.87;;;;;;;7.20;69.64;99230.89;127534;1103;22563;-74
2021/03/12 08:17:58;;;;;;;9.75;7.28;;;;;;;7.22;69.06;99247.28;127428;1106;22540;-74
2021/03/12 08:20:43;;;;;;;10.13;7.93;;;;;;;7.19;69.08;99248.44;127539;1105;23729;-74
2021/03/12 08:23:35;;;;;;;12.43;8.60;;;;;;;7.13;69.29;99250.94;127433;1105;22562;-72
2021/03/12 08:26:11;;;;;;;11.93;7.80;;;;;;;7.06;68.74;99261.31;127476;1105;22505;-73
2021/03/12 08:29:29;;;;;;;12.13;7.77;;;;;;;7.01;68.91;99261.84;127390;1106;22527;-73
2021/03/12 08:31:58;;;;;;;12.35;7.90;;;;;;;6.96;69.50;99261.52;127475;1105;22503;-73
2021/03/12 08:34:47;;;;;;;11.48;7.42;;;;;;;6.98;69.34;99256.92;127504;1105;23327;-73
2021/03/12 08:37:53;;;;;;;10.30;7.58;;;;;;;6.94;69.54;99275.83;127365;1107;22514;-73
2021/03/12 08:40:34;;;;;;;14.03;8.80;;;;;;;6.92;69.71;99270.73;127473;1104;22647;-73
2021/03/12 08:43:25;;;;;;;11.45;7.50;;;;;;;6.88;69.16;99279.94;127425;1107;22642;-73
2021/03/12 08:46:24;;;;;;;13.32;8.93;;;;;;;6.90;69.71;99298.13;127844;1104;22542;-73
2021/03/12 08:48:56;;;;;;;14.70;8.65;;;;;;;6.92;69.82;99286.48;127457;1105;24642;-73
2021/03/12 08:51:30;;;;;;;9.78;6.83;;;;;;;6.93;69.62;99293.39;127583;1105;22523;-73
2021/03/12 08:54:11;;;;;;;11.12;7.72;;;;;;;6.96;69.61;99300.09;127757;1104;22490;-74
2021/03/12 08:56:46;;;;;;;12.00;8.60;;;;;;;6.96;69.73;99311.41;127490;1105;22512;-73
2021/03/12 08:59:14;;;;;;;14.93;10.70;;;;;;;7.02;70.02;99310.73;127884;1105;24531;-73
2021/03/12 09:01:58;;;;;;;14.00;8.80;;;;;;;7.06;69.55;99317.30;127615;1105;22548;-73
2021/03/12 09:04:35;;;;;;;12.05;7.55;;;;;;;7.08;69.45;99317.12;127551;1105;22618;-74
2021/03/12 09:07:25;;;;;;;10.73;7.90;;;;;;;7.08;69.83;99319.74;127558;1105;22614;-73
2021/03/12 09:10:26;;;;;;;12.80;8.53;;;;;;;7.12;70.07;99322.84;127481;1104;22529;-74
2021/03/12 09:13:30;;;;;;;15.78;9.05;;;;;;;7.19;70.24;99324.61;127891;1101;22529;-74
2021/03/12 09:16:04;;;;;;;13.60;9.13;;;;;;;7.26;69.72;99335.25;127997;1101;25072;-74
2021/03/12 09:18:43;;;;;;;11.57;7.83;;;;;;;7.28;70.01;99335.91;127997;1101;22556;-74
2021/03/12 09:21:19;;;;;;;10.10;7.60;;;;;;;7.33;69.86;99335.38;128061;1101;22931;-73
2021/03/12 09:23:59;;;;;;;13.03;9.78;;;;;;;7.38;69.85;99336.52;128029;1101;22556;-73
2021/03/12 09:26:35;;;;;;;14.43;8.88;;;;;;;7.38;69.13;99339.14;127968;1101;22486;-73
2021/03/12 09:29:12;;;;;;;17.02;12.13;;;;;;;7.38;69.15;99347.03;128238;1099;23520;-74
2021/03/12 09:31:41;;;;;;;18.62;11.80;;;;;;;7.39;69.37;99355.72;128179;1101;22525;-74
2021/03/12 09:34:20;;;;;;;12.85;8.75;;;;;;;7.37;69.16;99355.09;127972;1101;22503;-73
2021/03/12 09:36:52;;;;;;;17.45;11.05;;;;;;;7.34;69.20;99364.12;128200;1101;22569;-73
2021/03/12 09:39:40;;;;;;;17.25;11.78;;;;;;;7.28;69.24;99370.88;128201;1099;23037;-73
2021/03/12 09:42:31;;;;;;;12.68;8.83;;;;;;;7.23;68.74;99367.95;128107;1100;22525;-73
2021/03/12 09:45:25;;;;;;;14.15;9.28;;;;;;;7.18;69.29;99374.70;127994;1099;22495;-74
2021/03/12 09:48:00;;;;;;;12.58;8.53;;;;;;;7.17;68.69;99384.39;128024;1101;22579;-74
2021/03/12 09:50:34;;;;;;;9.88;7.33;;;;;;;7.18;69.57;99390.45;127985;1101;22545;-73
2021/03/12 09:53:07;;;;;;;9.75;6.87;;;;;;;7.18;68.89;99388.64;128214;1100;22511;-75
2021/03/12 09:56:04;;;;;;;9.40;7.63;;;;;;;7.21;68.79;99401.44;128189;1099;22521;-74
2021/03/12 09:58:36;;;;;;;12.47;7.45;;;;;;;7.25;68.69;99391.41;128014;1101;22515;-74
2021/03/12 10:01:42;;;;;;;9.13;6.70;;;;;;;7.24;68.58;99393.23;127900;1101;23430;-73
2021/03/12 10:05:01;;;;;;;8.50;5.60;;;;;;;7.17;67.88;99402.78;127917;1103;22613;-75
2021/03/12 10:08:05;;;;;;;8.40;5.50;;;;;;;7.13;68.19;99409.36;127611;1104;22712;-73
2021/03/12 10:10:41;;;;;;;7.58;4.47;;;;;;;7.21;68.02;99406.70;127516;1103;23261;-73
2021/03/12 10:13:33;;;;;;;6.95;4.40;;;;;;;7.34;67.62;99403.54;127896;1103;22701;-73
2021/03/12 10:16:12;;;;;;;6.85;4.40;;;;;;;7.57;67.81;99405.42;127862;1104;22549;-73
2021/03/12 10:19:10;;;;;;;8.55;5.20;;;;;;;7.69;66.89;99398.77;127530;1104;23052;-73
2021/03/12 10:21:47;;;;;;;7.87;4.75;;;;;;;7.72;66.01;99414.20;127926;1104;22535;-74
2021/03/12 10:24:20;;;;;;;12.45;8.18;;;;;;;7.66;65.62;99423.59;127847;1105;22497;-74
2021/03/12 10:26:48;;;;;;;9.83;7.62;;;;;;;7.59;65.74;99417.38;127915;1104;22523;-73
2021/03/12 10:29:17;;;;;;;6.70;4.60;;;;;;;7.52;65.23;99437.45;127874;1105;22527;-74
2021/03/12 10:31:45;;;;;;;9.98;5.33;;;;;;;7.45;65.31;99434.69;127893;1103;22519;-77
2021/03/12 10:34:15;;;;;;;8.13;5.95;;;;;;;7.48;65.57;99436.16;127687;1104;22659;-74
2021/03/12 10:36:43;;;;;;;6.87;4.42;;;;;;;7.52;65.25;99448.78;127984;1101;22632;-74
2021/03/12 10:39:50;;;;;;;7.97;5.10;;;;;;;7.54;65.79;99444.19;128172;1101;24607;-74
2021/03/12 10:42:28;;;;;;;6.75;4.25;;;;;;;7.54;65.03;99452.07;128264;1100;22519;-74
2021/03/12 10:45:00;;;;;;;7.00;4.08;;;;;;;7.52;64.78;99454.03;127973;1101;24608;-74
2021/03/12 10:47:29;;;;;;;6.37;4.08;;;;;;;7.52;65.19;99455.85;128108;1099;22506;-74
2021/03/12 10:49:58;;;;;;;10.43;6.80;;;;;;;7.51;64.62;99460.30;128000;1101;22508;-73
2021/03/12 10:52:32;;;;;;;13.18;5.83;;;;;;;7.53;65.17;99460.95;127944;1101;22530;-73
2021/03/12 10:55:10;;;;;;;10.50;6.12;;;;;;;7.58;64.58;99468.31;128257;1101;22839;-74
2021/03/12 10:57:59;;;;;;;8.10;6.28;;;;;;;7.58;64.07;99465.69;128234;1100;22648;-73
2021/03/12 11:00:29;;;;;;;9.10;5.03;;;;;;;7.57;63.90;99465.88;128192;1101;22533;-73
2021/03/12 11:03:03;;;;;;;11.22;4.78;;;;;;;7.54;63.49;99467.03;128144;1100;22500;-74
2021/03/12 11:05:31;;;;;;;4.80;3.87;;;;;;;7.52;63.23;99459.30;128180;1099;23140;-74
2021/03/12 11:07:59;;;;;;;8.83;5.58;;;;;;;7.50;63.35;99473.62;128133;1100;22619;-74
2021/03/12 11:10:27;;;;;;;12.23;6.20;;;;;;;7.47;62.98;99469.52;128170;1099;22511;-73
2021/03/12 11:12:56;;;;;;;7.67;5.08;;;;;;;7.42;63.40;99465.74;128201;1099;24679;-73
2021/03/12 11:15:24;;;;;;;12.58;7.50;;;;;;;7.43;63.78;99462.12;128200;1101;22952;-74
2021/03/12 11:17:52;;;;;;;6.60;5.42;;;;;;;7.43;63.89;99443.72;128178;1101;22539;-73
2021/03/12 11:20:22;;;;;;;7.15;5.17;;;;;;;7.69;64.65;99451.34;128164;1101;25206;-75
2021/03/12 11:22:51;;;;;;;6.70;5.30;;;;;;;7.94;64.33;99436.28;128194;1100;22527;-73
2021/03/12 11:25:20;;;;;;;8.88;5.10;;;;;;;8.10;63.62;99441.45;127911;1100;22502;-74
2021/03/12 11:27:48;;;;;;;5.85;5.25;;;;;;;8.22;63.46;99441.86;128128;1100;25177;-73
2021/03/12 11:30:20;;;;;;;8.78;6.75;;;;;;;8.29;62.66;99448.05;127945;1101;22680;-75
2021/03/12 11:32:48;;;;;;;9.63;6.33;;;;;;;8.40;62.94;99445.06;128194;1099;22514;-73
2021/03/12 11:35:18;;;;;;;7.83;5.12;;;;;;;8.49;62.82;99445.80;128152;1099;23002;-73
2021/03/12 11:37:46;;;;;;;6.47;5.42;;;;;;;8.55;62.26;99442.47;128138;1099;22651;-73
2021/03/12 11:40:15;;;;;;;7.00;5.25;;;;;;;8.59;61.79;99454.27;128160;1100;22532;-73
2021/03/12 11:42:45;;;;;;;7.53;5.97;;;;;;;8.57;61.47;99439.67;128098;1099;22525;-74
2021/03/12 11:45:16;;;;;;;9.35;6.83;;;;;;;8.55;61.84;99442.47;128160;1101;22585;-73
2021/03/12 11:47:45;;;;;;;8.25;7.35;;;;;;;8.55;61.80;99445.09;127950;1101;22493;-73
2021/03/12 11:50:38;;;;;;;15.98;11.53;;;;;;;8.60;61.70;99439.33;128171;1101;22508;-74
2021/03/12 11:53:06;;;;;;;12.15;10.72;;;;;;;8.64;61.37;99443.23;128234;1100;22556;-75
2021/03/12 11:55:34;;;;;;;12.05;9.43;;;;;;;8.64;61.56;99441.41;128162;1099;22496;-75
2021/03/12 11:58:03;;;;;;;11.53;8.73;;;;;;;8.63;60.66;99429.25;127904;1101;22512;-74
2021/03/12 12:00:31;;;;;;;10.98;9.53;;;;;;;8.60;61.01;99423.53;128138;1101;22505;-74
2021/03/12 12:02:59;;;;;;;12.20;9.33;;;;;;;8.62;61.27;99437.31;127950;1101;22511;-74
2021/03/12 12:05:28;;;;;;;16.05;12.07;;;;;;;8.65;61.23;99434.33;128168;1101;22517;-74
2021/03/12 12:07:56;;;;;;;13.90;10.18;;;;;;;8.72;61.27;99448.42;128191;1101;22528;-74
2021/03/12 12:10:24;;;;;;;12.68;8.40;;;;;;;8.77;61.28;99440.81;128142;1101;24581;-74